CDT,Max TemperatureF,Mean TemperatureF,Min TemperatureF,Max Dew PointF,MeanDew PointF,Min DewpointF,Max Humidity, Mean Humidity, Min Humidity, Max Sea Level PressureIn, Mean Sea Level PressureIn, Min Sea Level PressureIn, Max VisibilityMiles, Mean VisibilityMiles, Min VisibilityMiles, Max Wind SpeedMPH, Mean Wind SpeedMPH, Max Gust SpeedMPH,PrecipitationIn, CloudCover, Events, WindDirDegrees
2013-4-1,75,63,50,55,51,42,100,67,33,30.10,30.02,29.96,10,6,0,14,4,21,0.00,5,Fog,359
2013-4-2,79,63,46,50,46,41,93,62,30,30.14,30.07,30.00,10,10,10,14,6,21,0.00,1,,64
2013-4-3,58,52,45,46,43,34,93,72,50,30.09,30.04,29.99,10,8,2,18,9,31,0.40,8,Rain,37
2013-4-4,53,49,45,49,46,43,100,92,83,30.04,29.99,29.93,10,7,1,13,6,17,0.01,8,Rain,327
2013-4-5,67,56,44,47,45,42,93,69,44,30.19,30.12,30.05,10,9,4,13,6,17,0.00,5,,336
2013-4-6,76,59,41,50,43,39,93,62,31,30.15,30.09,29.99,10,10,7,16,7,21,0.00,0,,174
2013-4-7,76,63,49,55,52,47,96,70,43,30.10,30.03,29.96,10,10,6,16,8,20,0.00,4,,172
2013-4-8,82,70,57,63,59,55,100,72,43,30.02,29.97,29.91,10,10,7,24,12,29,0.00,4,,169
2013-4-9,87,78,68,68,65,63,87,68,48,30.01,29.95,29.91,10,9,7,30,14,37,T,6,Rain-Thunderstorm,156
2013-4-10,84,77,70,66,65,64,84,68,51,29.97,29.89,29.78,10,10,9,23,15,32,0.00,6,,152
2013-4-11,74,60,46,68,57,43,93,87,80,29.87,29.75,29.65,10,8,2,24,9,35,0.84,8,Rain-Thunderstorm,290
2013-4-12,72,57,41,47,42,36,96,62,27,30.02,29.95,29.86,10,10,10,13,3,18,0.00,0,,326
2013-4-13,79,62,44,49,46,43,93,62,30,30.05,29.99,29.91,10,10,10,14,4,16,0.00,0,,72
2013-4-14,71,64,57,60,56,46,93,73,52,29.92,29.83,29.76,10,8,4,30,10,37,1.12,6,Rain-Thunderstorm,137
2013-4-15,84,70,55,70,61,54,100,76,51,29.97,29.90,29.82,10,6,0,20,8,25,0.00,5,,148
2013-4-16,85,78,71,70,69,67,93,74,55,30.07,30.02,29.96,10,9,6,18,10,23,0.00,6,Rain,159
2013-4-17,87,78,68,69,67,66,97,74,51,30.10,30.02,29.93,10,8,2,21,11,28,0.00,2,,153
2013-4-18,84,69,53,70,64,53,93,76,58,29.93,29.83,29.70,10,9,2,26,15,35,0.95,6,Rain-Thunderstorm,187
2013-4-19,59,50,41,54,42,34,93,67,40,30.19,30.03,29.87,10,9,2,21,8,29,0.09,6,Rain,314
2013-4-20,69,54,38,44,38,34,92,61,30,30.28,30.21,30.15,10,10,10,16,4,22,0.00,0,,58
2013-4-21,73,60,46,47,40,35,86,58,29,30.27,30.20,30.13,10,10,10,13,6,17,0.00,0,,86
2013-4-22,78,62,46,56,48,42,93,64,35,30.17,30.10,30.01,10,10,10,14,5,25,0.00,1,,127
2013-4-23,81,71,61,63,60,56,90,71,51,30.09,30.03,29.94,10,10,7,16,11,22,0.00,6,,160
2013-4-24,69,60,51,63,54,44,96,83,69,30.27,30.12,29.96,10,8,2,25,11,30,0.90,8,Rain-Thunderstorm,346
2013-4-25,72,59,46,48,41,36,82,55,28,30.37,30.30,30.25,10,10,10,17,8,23,0.00,2,,36
2013-4-26,79,63,46,59,49,40,93,66,38,30.32,30.24,30.17,10,10,10,15,6,17,0.00,0,,138
2013-4-27,82,72,62,65,63,59,100,79,58,30.18,30.10,29.99,10,9,4,22,9,26,T,5,,186
2013-4-28,76,68,60,67,64,59,100,84,68,30.01,29.98,29.94,10,8,0,24,7,84,0.31,5,Fog-Rain-Thunderstorm,225
2013-4-29,81,71,60,64,61,54,100,71,42,30.02,29.96,29.89,10,5,0,10,3,15,0.00,4,Fog,72
2013-4-30,80,69,57,65,61,56,100,76,51,29.95,29.92,29.87,10,9,7,17,5,22,0.12,2,Rain,128